Time;durP1;ratioP1;P1;durP2;ratioP2;P2;SDS_P1;SDS_P2;PMS_P1;PMS_P2;Temp;Humidity;BMP_temperature;BMP_pressure;BME280_temperature;BME280_humidity;BME280_pressure;Samples;Min_cycle;Max_cycle;Signal;HPM_P1;HPM_P2
2023/07/20 00:00:09;;;;;;;5.45;2.53;;;21.90;23.80;;;;;;5063455;28;20397;-88
2023/07/20 00:02:36;;;;;;;5.00;2.83;;;21.90;23.70;;;;;;5068619;28;20200;-89
2023/07/20 00:05:03;;;;;;;4.35;2.80;;;21.80;23.80;;;;;;5045468;28;20216;-88
2023/07/20 00:07:30;;;;;;;4.93;2.40;;;21.80;23.60;;;;;;5073156;28;20197;-88
2023/07/20 00:09:57;;;;;;;6.30;2.58;;;21.70;23.90;;;;;;5068530;28;20566;-90
2023/07/20 00:12:25;;;;;;;8.25;2.60;;;21.70;23.80;;;;;;5074428;28;20214;-88
2023/07/20 00:14:53;;;;;;;6.03;2.60;;;21.70;23.70;;;;;;5073377;28;20201;-88
2023/07/20 00:17:20;;;;;;;8.13;2.50;;;21.70;23.50;;;;;;5071682;28;20203;-87
2023/07/20 00:19:47;;;;;;;3.63;2.60;;;21.60;24.30;;;;;;5070352;28;20209;-89
2023/07/20 00:22:14;;;;;;;6.93;2.65;;;21.60;24.10;;;;;;5059625;28;20189;-87
2023/07/20 00:24:41;;;;;;;3.03;2.40;;;21.70;24.20;;;;;;5072017;28;20197;-89
2023/07/20 00:27:08;;;;;;;8.65;2.40;;;21.60;24.10;;;;;;5072572;28;20208;-90
2023/07/20 00:29:37;;;;;;;4.20;2.30;;;21.50;24.10;;;;;;5073473;28;20204;-89
2023/07/20 00:32:06;;;;;;;4.93;2.42;;;21.50;24.40;;;;;;5052712;28;20266;-87
2023/07/20 00:34:33;;;;;;;4.95;2.60;;;21.50;24.50;;;;;;5056686;28;20258;-88
2023/07/20 00:37:00;;;;;;;5.20;2.63;;;21.50;24.00;;;;;;5074470;28;20205;-88
2023/07/20 00:39:26;;;;;;;2.83;2.25;;;21.50;24.30;;;;;;5061870;28;20204;-88
2023/07/20 00:41:53;;;;;;;4.88;2.60;;;21.50;24.50;;;;;;5067640;28;20212;-88
2023/07/20 00:44:20;;;;;;;9.90;3.00;;;21.40;24.50;;;;;;5065254;28;20579;-89
2023/07/20 00:46:49;;;;;;;4.47;2.60;;;21.40;25.10;;;;;;5071193;28;20558;-87
2023/07/20 00:49:20;;;;;;;3.70;2.25;;;21.40;25.00;;;;;;5066028;28;20202;-91
2023/07/20 00:51:48;;;;;;;4.55;2.42;;;21.50;24.50;;;;;;5049951;28;20213;-89
2023/07/20 00:54:16;;;;;;;2.30;2.10;;;21.50;24.50;;;;;;5066048;28;20945;-88
2023/07/20 00:56:43;;;;;;;5.95;2.50;;;21.40;24.40;;;;;;5069678;28;20660;-88
2023/07/20 00:59:11;;;;;;;6.25;2.63;;;21.50;24.50;;;;;;5052224;28;20208;-88
2023/07/20 01:01:38;;;;;;;5.55;2.40;;;21.50;24.70;;;;;;5056893;28;20204;-89
2023/07/20 01:04:07;;;;;;;4.00;2.65;;;21.50;24.60;;;;;;5069053;28;20712;-89
2023/07/20 01:06:54;;;;;;;4.93;2.10;;;21.50;25.40;;;;;;5046948;28;20645;-89
2023/07/20 01:09:29;;;;;;;3.95;2.53;;;21.60;24.80;;;;;;5066971;28;20306;-88
2023/07/20 01:12:07;;;;;;;4.95;2.65;;;21.50;24.50;;;;;;5056353;28;20345;-88
2023/07/20 01:14:36;;;;;;;5.60;2.67;;;21.40;25.90;;;;;;5067363;28;20555;-89
2023/07/20 01:17:03;;;;;;;4.20;2.25;;;21.30;25.50;;;;;;5052944;28;20280;-90
2023/07/20 01:19:31;;;;;;;6.03;2.88;;;21.30;26.40;;;;;;5069719;28;20225;-88
2023/07/20 01:22:04;;;;;;;3.42;2.45;;;21.30;26.70;;;;;;5072429;28;20193;-88
2023/07/20 01:24:52;;;;;;;5.57;2.50;;;21.40;26.40;;;;;;5070770;28;20211;-89
2023/07/20 01:27:58;;;;;;;4.18;2.40;;;21.30;26.70;;;;;;5068700;28;20208;-90
2023/07/20 01:30:48;;;;;;;7.15;2.63;;;21.20;27.20;;;;;;5070622;28;20209;-88
2023/07/20 01:33:19;;;;;;;6.90;2.60;;;21.30;27.20;;;;;;5066329;28;20247;-89
2023/07/20 01:35:50;;;;;;;6.38;2.78;;;21.30;27.20;;;;;;5065227;28;20196;-88
2023/07/20 01:38:19;;;;;;;4.47;2.47;;;21.20;27.60;;;;;;5063300;28;20185;-90
2023/07/20 01:40:46;;;;;;;6.10;2.88;;;21.30;27.70;;;;;;5066846;28;20204;-88
2023/07/20 01:43:14;;;;;;;5.72;2.42;;;21.10;29.20;;;;;;5070199;28;20202;-91
2023/07/20 01:45:40;;;;;;;5.65;2.70;;;21.10;28.50;;;;;;5050171;28;20200;-89
2023/07/20 01:48:07;;;;;;;7.07;2.78;;;21.00;29.00;;;;;;5070151;28;20204;-90
2023/07/20 01:50:36;;;;;;;6.47;2.90;;;21.00;28.70;;;;;;5068213;28;20220;-88
2023/07/20 01:53:03;;;;;;;4.43;2.63;;;21.00;29.60;;;;;;5077877;28;20228;-89
2023/07/20 01:55:30;;;;;;;6.43;2.60;;;20.90;30.20;;;;;;5037862;28;20198;-89
2023/07/20 01:57:59;;;;;;;5.63;2.72;;;20.90;31.10;;;;;;5051519;28;20224;-87
2023/07/20 02:00:26;;;;;;;5.72;2.42;;;20.80;31.80;;;;;;5069900;28;20197;-88
2023/07/20 02:02:53;;;;;;;6.85;2.50;;;20.80;32.70;;;;;;5069212;28;20213;-89
2023/07/20 02:05:20;;;;;;;6.03;2.58;;;20.80;32.80;;;;;;5070468;28;20650;-89
2023/07/20 02:07:48;;;;;;;5.72;2.70;;;20.70;32.60;;;;;;5068409;28;20200;-88
2023/07/20 02:10:15;;;;;;;3.70;2.63;;;20.80;32.80;;;;;;5068687;28;20205;-90
2023/07/20 02:12:42;;;;;;;4.07;2.40;;;20.80;32.00;;;;;;5050060;28;20243;-89
2023/07/20 02:15:10;;;;;;;4.40;2.85;;;20.90;30.80;;;;;;5066723;28;20205;-88
2023/07/20 02:17:40;;;;;;;6.35;2.50;;;21.00;30.30;;;;;;5070661;28;20216;-89
2023/07/20 02:20:09;;;;;;;7.80;2.35;;;21.00;29.60;;;;;;5042862;28;20198;-87
2023/07/20 02:22:37;;;;;;;3.38;2.20;;;20.90;30.40;;;;;;5070447;28;20205;-90
2023/07/20 02:25:06;;;;;;;4.75;2.25;;;20.90;29.60;;;;;;5048148;28;20212;-90
2023/07/20 02:27:33;;;;;;;4.57;2.30;;;20.90;29.80;;;;;;5070055;28;20213;-88
2023/07/20 02:30:00;;;;;;;6.68;2.40;;;20.90;30.10;;;;;;5051603;28;20203;-88
2023/07/20 02:32:29;;;;;;;6.97;2.20;;;20.80;29.80;;;;;;5070194;28;20209;-88
2023/07/20 02:34:55;;;;;;;5.38;2.70;;;20.80;32.80;;;;;;5048715;28;20208;-88
2023/07/20 02:37:23;;;;;;;4.55;2.30;;;20.70;30.60;;;;;;5064867;28;20343;-89
2023/07/20 02:39:50;;;;;;;3.35;2.05;;;20.60;30.30;;;;;;5065628;28;20228;-89
2023/07/20 02:42:19;;;;;;;3.53;2.20;;;20.50;32.50;;;;;;5044385;28;20580;-88
2023/07/20 02:44:46;;;;;;;4.68;2.50;;;20.40;32.40;;;;;;5063342;28;20193;-89
2023/07/20 02:47:13;;;;;;;5.45;2.20;;;20.40;32.40;;;;;;5065593;28;20205;-90
2023/07/20 02:49:40;;;;;;;4.10;2.15;;;20.30;32.30;;;;;;5053545;28;20212;-88
2023/07/20 02:52:07;;;;;;;5.68;2.50;;;20.40;32.40;;;;;;5064548;28;20591;-89
2023/07/20 02:54:34;;;;;;;4.45;2.35;;;20.50;30.10;;;;;;5070989;28;20618;-87
2023/07/20 02:57:01;;;;;;;8.38;2.28;;;20.40;31.70;;;;;;5034888;28;20200;-89
2023/07/20 02:59:30;;;;;;;4.47;2.20;;;20.40;32.40;;;;;;5065801;28;20464;-88
2023/07/20 03:01:57;;;;;;;7.13;2.72;;;20.30;31.60;;;;;;5051881;28;20278;-91
2023/07/20 03:04:24;;;;;;;4.80;2.13;;;20.20;32.60;;;;;;5069744;28;20205;-89
2023/07/20 03:06:51;;;;;;;4.32;1.95;;;20.00;40.00;;;;;;5064833;28;20557;-88
2023/07/20 03:09:18;;;;;;;4.93;2.03;;;19.90;42.10;;;;;;5060818;28;20628;-87
2023/07/20 03:11:45;;;;;;;8.18;2.30;;;19.70;48.10;;;;;;5056752;28;20219;-88
2023/07/20 03:14:12;;;;;;;3.47;1.95;;;19.50;50.30;;;;;;5070244;28;20251;-90
2023/07/20 03:16:41;;;;;;;2.53;1.90;;;19.40;53.10;;;;;;5063763;28;20328;-87
2023/07/20 03:19:08;;;;;;;5.47;2.70;;;19.30;53.90;;;;;;5071608;28;20243;-88
2023/07/20 03:21:40;;;;;;;4.55;2.10;;;19.30;55.30;;;;;;5069713;28;20231;-89
2023/07/20 03:24:07;;;;;;;5.07;2.08;;;19.20;55.20;;;;;;5059832;28;20201;-89
2023/07/20 03:26:34;;;;;;;3.20;1.95;;;19.10;55.10;;;;;;5078684;28;20213;-89
2023/07/20 03:29:01;;;;;;;9.48;2.25;;;19.10;55.10;;;;;;5055754;28;20197;-90
2023/07/20 03:31:28;;;;;;;3.00;1.80;;;19.00;55.00;;;;;;5057421;28;20239;-90
2023/07/20 03:33:57;;;;;;;2.35;1.70;;;19.00;55.00;;;;;;5053417;28;20196;-87
2023/07/20 03:36:24;;;;;;;5.30;2.05;;;19.00;56.10;;;;;;5067333;28;20205;-89
2023/07/20 03:38:51;;;;;;;3.78;2.30;;;19.00;55.00;;;;;;5069917;28;20193;-89
2023/07/20 03:41:19;;;;;;;5.55;2.40;;;18.90;60.00;;;;;;5068560;28;20242;-88
2023/07/20 03:43:46;;;;;;;3.40;2.30;;;18.80;63.00;;;;;;5066839;28;20608;-88
2023/07/20 03:46:13;;;;;;;6.05;2.28;;;18.70;65.00;;;;;;5068174;28;20198;-89
2023/07/20 03:48:40;;;;;;;4.95;2.15;;;18.70;68.00;;;;;;5048403;28;20205;-90
2023/07/20 03:51:09;;;;;;;7.10;2.00;;;18.70;66.90;;;;;;5059637;28;20201;-90
2023/07/20 03:53:36;;;;;;;4.93;2.00;;;18.60;65.80;;;;;;5051097;28;20204;-88
2023/07/20 03:56:03;;;;;;;4.35;2.28;;;18.70;66.60;;;;;;5065597;28;20584;-89
2023/07/20 03:58:31;;;;;;;2.67;2.03;;;18.70;66.50;;;;;;5062663;28;20288;-89
2023/07/20 04:00:59;;;;;;;5.05;2.25;;;18.70;66.80;;;;;;5051746;28;20249;-90
2023/07/20 04:03:26;;;;;;;8.50;2.10;;;18.70;66.40;;;;;;5068069;28;20201;-87
2023/07/20 04:05:55;;;;;;;4.13;2.15;;;18.70;64.70;;;;;;5068278;28;20494;-89
2023/07/20 04:08:24;;;;;;;6.22;1.98;;;18.80;64.00;;;;;;5054268;28;20197;-88
2023/07/20 04:10:51;;;;;;;3.88;2.00;;;18.80;65.60;;;;;;5047019;28;20561;-89
2023/07/20 04:13:19;;;;;;;5.63;2.28;;;18.80;65.00;;;;;;5066875;28;20608;-89
2023/07/20 04:15:45;;;;;;;2.70;1.98;;;18.80;65.30;;;;;;5033568;28;20198;-90
2023/07/20 04:18:12;;;;;;;6.40;2.17;;;18.70;65.20;;;;;;5067753;28;20577;-86
2023/07/20 04:20:39;;;;;;;2.90;1.95;;;18.70;65.60;;;;;;5071300;28;20555;-89
2023/07/20 04:23:06;;;;;;;4.32;2.38;;;18.70;66.60;;;;;;5049832;28;20193;-89
2023/07/20 04:25:38;;;;;;;2.72;1.92;;;18.70;65.80;;;;;;5051237;28;20205;-89
2023/07/20 04:28:08;;;;;;;4.35;2.17;;;18.70;65.90;;;;;;5060975;28;20225;-90
2023/07/20 04:30:35;;;;;;;2.83;1.70;;;18.70;66.00;;;;;;5064982;28;20251;-89
2023/07/20 04:33:02;;;;;;;2.58;2.15;;;18.70;67.00;;;;;;5070497;28;20221;-86
2023/07/20 04:35:53;;;;;;;3.15;2.00;;;18.80;65.60;;;;;;5070002;28;20208;-90
2023/07/20 04:38:20;;;;;;;3.53;2.35;;;18.70;66.60;;;;;;5067956;28;20198;-91
2023/07/20 04:40:50;;;;;;;3.05;1.90;;;18.70;66.70;;;;;;5070372;28;20197;-91
2023/07/20 04:43:18;;;;;;;6.32;2.20;;;18.80;65.50;;;;;;5055538;28;20204;-89
2023/07/20 04:45:45;;;;;;;3.95;2.17;;;18.80;65.00;;;;;;5068761;28;20210;-91
2023/07/20 04:48:15;;;;;;;7.97;2.53;;;18.80;65.50;;;;;;5070171;28;20194;-92
2023/07/20 04:50:43;;;;;;;3.67;2.10;;;18.80;66.00;;;;;;5072778;28;20197;-90
2023/07/20 04:53:10;;;;;;;3.67;2.10;;;18.80;65.80;;;;;;5055967;28;20308;-88
2023/07/20 04:55:38;;;;;;;3.33;2.45;;;18.90;64.40;;;;;;5052225;28;20202;-89
2023/07/20 04:58:06;;;;;;;5.68;2.10;;;19.00;62.90;;;;;;5070960;28;20208;-89
2023/07/20 05:00:34;;;;;;;4.95;2.38;;;19.00;61.80;;;;;;5063287;28;20215;-89
2023/07/20 05:03:01;;;;;;;3.90;2.50;;;19.10;59.80;;;;;;5043806;28;20531;-88
2023/07/20 05:05:28;;;;;;;5.53;2.30;;;19.10;60.60;;;;;;5080610;28;20196;-90
2023/07/20 05:07:55;;;;;;;3.47;2.25;;;19.10;62.10;;;;;;5074313;28;20661;-91
2023/07/20 05:10:22;;;;;;;4.05;2.30;;;19.10;62.30;;;;;;5065423;28;20189;-91
2023/07/20 05:12:49;;;;;;;6.32;3.03;;;19.10;56.80;;;;;;5047294;28;20228;-90
2023/07/20 05:15:18;;;;;;;4.78;2.60;;;19.10;55.10;;;;;;5036303;28;20201;-92
2023/07/20 05:17:45;;;;;;;3.17;2.50;;;19.20;55.20;;;;;;5070416;28;20608;-89
2023/07/20 05:20:12;;;;;;;6.05;2.40;;;19.10;54.80;;;;;;5067654;28;20702;-89
2023/07/20 05:22:39;;;;;;;6.38;2.55;;;19.10;53.30;;;;;;5076003;28;20662;-90
2023/07/20 05:25:08;;;;;;;5.38;2.53;;;19.20;50.00;;;;;;5071050;28;20606;-86
2023/07/20 05:27:38;;;;;;;8.13;2.67;;;19.30;49.70;;;;;;5056029;28;20206;-86
2023/07/20 05:30:07;;;;;;;6.38;2.60;;;19.30;48.90;;;;;;5078015;28;20212;-82
2023/07/20 05:32:35;;;;;;;4.90;2.55;;;19.40;43.10;;;;;;5072277;28;20221;-83
2023/07/20 05:35:02;;;;;;;4.38;2.97;;;19.50;43.30;;;;;;5071712;28;20196;-84
2023/07/20 05:37:29;;;;;;;4.25;2.25;;;19.60;43.90;;;;;;5073756;28;20209;-87
2023/07/20 05:39:56;;;;;;;6.13;2.40;;;19.60;45.90;;;;;;5064141;28;20224;-86
2023/07/20 05:42:23;;;;;;;8.65;2.45;;;19.60;40.30;;;;;;5067607;28;20250;-82
2023/07/20 05:44:52;;;;;;;5.47;2.40;;;19.50;40.80;;;;;;5066876;28;20216;-82
2023/07/20 05:47:19;;;;;;;5.95;2.20;;;19.50;38.00;;;;;;5074888;28;20201;-82
2023/07/20 05:49:47;;;;;;;5.30;2.42;;;19.60;37.90;;;;;;5072574;28;20197;-86
2023/07/20 05:52:14;;;;;;;4.28;2.20;;;19.50;36.20;;;;;;5072929;28;20221;-84
2023/07/20 05:54:41;;;;;;;4.28;2.35;;;19.60;35.00;;;;;;5073672;28;20207;-85
2023/07/20 05:57:08;;;;;;;4.05;2.35;;;19.50;36.80;;;;;;5079168;28;20193;-82
2023/07/20 05:59:36;;;;;;;4.60;2.70;;;19.50;35.10;;;;;;5070711;28;20274;-84
2023/07/20 06:02:03;;;;;;;4.97;2.53;;;19.50;35.30;;;;;;5064237;28;20596;-83
2023/07/20 06:04:30;;;;;;;3.08;2.30;;;19.40;35.00;;;;;;5071686;28;20209;-83
2023/07/20 06:06:58;;;;;;;3.42;3.13;;;19.40;33.90;;;;;;5067585;28;20234;-84
2023/07/20 06:09:25;;;;;;;4.07;2.28;;;19.40;34.60;;;;;;5065587;28;20206;-84
2023/07/20 06:11:51;;;;;;;6.82;2.33;;;19.40;35.00;;;;;;5068572;28;20217;-82
2023/07/20 06:14:18;;;;;;;6.35;2.60;;;19.40;35.40;;;;;;5069097;28;20553;-82
2023/07/20 06:16:45;;;;;;;7.45;2.30;;;19.40;34.10;;;;;;5084165;28;20212;-84
2023/07/20 06:19:12;;;;;;;3.42;2.40;;;19.60;36.10;;;;;;5075246;28;20213;-84
2023/07/20 06:21:39;;;;;;;7.00;2.58;;;19.70;36.20;;;;;;5066192;28;20197;-81
2023/07/20 06:24:08;;;;;;;3.15;2.33;;;19.90;29.70;;;;;;5075158;28;20209;-85
2023/07/20 06:26:38;;;;;;;5.05;2.20;;;20.20;28.30;;;;;;5074731;28;20197;-84
2023/07/20 06:29:06;;;;;;;4.30;2.22;;;20.50;27.80;;;;;;5079261;28;20199;-84
2023/07/20 06:31:33;;;;;;;6.78;2.22;;;20.60;27.90;;;;;;5072112;28;20255;-80
2023/07/20 06:34:00;;;;;;;8.93;2.60;;;20.70;25.70;;;;;;5071728;28;20194;-82
2023/07/20 06:36:28;;;;;;;4.10;2.30;;;20.60;29.00;;;;;;5073532;28;20673;-80
2023/07/20 06:38:55;;;;;;;2.70;2.30;;;20.60;25.50;;;;;;5075194;28;20207;-84
2023/07/20 06:41:23;;;;;;;3.55;2.05;;;20.50;26.70;;;;;;5078098;28;20220;-84
2023/07/20 06:43:52;;;;;;;4.72;2.28;;;20.40;26.10;;;;;;5071282;28;20228;-84
2023/07/20 06:46:19;;;;;;;5.78;2.50;;;20.40;26.90;;;;;;5053842;28;20200;-81
2023/07/20 06:48:45;;;;;;;4.25;2.13;;;20.50;25.00;;;;;;5070276;28;20205;-84
2023/07/20 06:51:12;;;;;;;4.25;2.28;;;20.50;25.10;;;;;;5070733;28;20355;-82
2023/07/20 06:53:39;;;;;;;5.65;2.30;;;20.40;26.10;;;;;;5060489;28;20225;-82
2023/07/20 06:56:06;;;;;;;4.65;2.58;;;20.50;25.80;;;;;;5071611;28;20193;-82
2023/07/20 06:58:34;;;;;;;4.85;2.35;;;20.60;24.90;;;;;;5069550;28;20197;-84
2023/07/20 07:01:06;;;;;;;4.13;2.45;;;20.60;26.30;;;;;;5067424;28;20208;-82
2023/07/20 07:03:33;;;;;;;5.05;2.63;;;20.80;24.70;;;;;;5074246;28;20197;-83
2023/07/20 07:05:59;;;;;;;6.15;2.75;;;20.90;25.20;;;;;;5069756;28;20541;-83
2023/07/20 07:08:26;;;;;;;5.25;2.42;;;21.00;26.00;;;;;;5070193;28;20197;-83
2023/07/20 07:10:54;;;;;;;2.92;2.35;;;20.90;23.60;;;;;;5066127;28;20200;-83
2023/07/20 07:13:20;;;;;;;6.20;2.60;;;20.90;24.50;;;;;;5069127;28;20220;-84
2023/07/20 07:15:49;;;;;;;3.70;2.58;;;21.10;24.80;;;;;;5071361;28;20201;-84
2023/07/20 07:18:16;;;;;;;5.47;2.40;;;21.20;25.00;;;;;;5073169;28;20213;-84
2023/07/20 07:20:42;;;;;;;3.53;2.25;;;21.30;25.00;;;;;;5071022;28;20619;-82
2023/07/20 07:23:09;;;;;;;3.58;2.47;;;21.40;25.10;;;;;;5059174;28;20205;-84
2023/07/20 07:25:36;;;;;;;4.00;2.17;;;21.80;22.80;;;;;;5067713;28;20209;-84
2023/07/20 07:28:03;;;;;;;4.22;2.35;;;22.20;20.00;;;;;;5066042;28;20675;-84
2023/07/20 07:30:30;;;;;;;2.45;1.95;;;22.20;20.10;;;;;;5059859;28;20197;-83
2023/07/20 07:32:58;;;;;;;3.47;2.15;;;22.70;17.40;;;;;;5064812;28;20220;-84
2023/07/20 07:35:25;;;;;;;3.60;2.20;;;23.00;17.40;;;;;;5067401;28;20553;-83
2023/07/20 07:37:52;;;;;;;5.25;2.25;;;23.20;16.40;;;;;;5071679;28;20197;-82
2023/07/20 07:40:19;;;;;;;3.53;2.30;;;23.10;16.50;;;;;;5062796;28;20221;-84
2023/07/20 07:42:46;;;;;;;5.53;2.33;;;23.10;16.80;;;;;;5068245;28;20204;-83
2023/07/20 07:45:13;;;;;;;3.38;2.30;;;22.80;18.30;;;;;;5069380;28;20193;-86
2023/07/20 07:47:40;;;;;;;2.60;2.20;;;22.70;17.80;;;;;;5070640;28;20192;-79
2023/07/20 07:50:10;;;;;;;3.15;2.20;;;22.80;17.30;;;;;;5053932;28;20236;-81
2023/07/20 07:52:36;;;;;;;6.32;2.47;;;22.80;18.60;;;;;;5068779;28;20213;-80
2023/07/20 07:55:04;;;;;;;4.65;2.30;;;22.70;17.00;;;;;;5070851;28;20675;-81
2023/07/20 07:57:31;;;;;;;5.35;2.20;;;22.80;16.30;;;;;;5068828;28;20235;-80
2023/07/20 07:59:57;;;;;;;7.07;2.40;;;22.60;15.90;;;;;;5076364;28;20208;-80
2023/07/20 08:02:24;;;;;;;4.65;2.58;;;22.50;17.30;;;;;;5070816;28;20204;-82
2023/07/20 08:04:52;;;;;;;6.43;2.53;;;22.70;16.50;;;;;;5053950;28;20649;-83
2023/07/20 08:07:20;;;;;;;3.60;2.45;;;22.50;17.10;;;;;;5061664;28;20189;-81
2023/07/20 08:09:47;;;;;;;4.38;2.17;;;22.80;16.00;;;;;;5079310;28;20200;-82
2023/07/20 08:12:17;;;;;;;3.90;2.55;;;22.80;16.40;;;;;;5068986;28;20753;-81
2023/07/20 08:14:44;;;;;;;4.13;2.20;;;22.90;16.30;;;;;;5074730;28;20641;-81
2023/07/20 08:17:11;;;;;;;3.67;2.40;;;22.90;17.70;;;;;;5074513;28;20200;-84
2023/07/20 08:19:41;;;;;;;5.43;2.17;;;22.90;17.30;;;;;;5069266;28;20209;-80
2023/07/20 08:22:08;;;;;;;5.70;2.40;;;22.90;18.60;;;;;;5069231;28;20259;-82
2023/07/20 08:24:40;;;;;;;3.33;2.65;;;22.80;18.20;;;;;;5072225;28;20209;-81
2023/07/20 08:27:08;;;;;;;4.65;2.40;;;22.80;18.20;;;;;;5068439;28;20197;-79
2023/07/20 08:29:35;;;;;;;4.55;2.40;;;22.90;18.20;;;;;;5079226;28;20201;-82
2023/07/20 08:32:01;;;;;;;8.02;2.50;;;23.10;17.30;;;;;;5072569;28;20189;-81
2023/07/20 08:34:28;;;;;;;4.18;2.67;;;23.00;16.90;;;;;;5080788;28;20715;-80
2023/07/20 08:36:57;;;;;;;2.85;2.20;;;23.00;17.70;;;;;;5075037;28;20197;-81
2023/07/20 08:39:24;;;;;;;8.15;2.92;;;23.00;16.90;;;;;;5076048;28;20201;-79
2023/07/20 08:41:52;;;;;;;8.77;2.70;;;22.90;17.70;;;;;;5069659;28;20938;-82
2023/07/20 08:44:20;;;;;;;3.58;2.65;;;23.20;18.10;;;;;;5070602;28;20199;-82
2023/07/20 08:46:47;;;;;;;4.93;2.50;;;23.50;18.30;;;;;;5071793;28;20246;-80
2023/07/20 08:49:16;;;;;;;6.00;2.50;;;24.10;17.80;;;;;;5071287;28;20211;-82
2023/07/20 08:51:44;;;;;;;2.67;2.30;;;24.40;17.00;;;;;;5073391;28;20196;-80
2023/07/20 08:54:13;;;;;;;4.10;2.47;;;24.60;15.60;;;;;;5070615;28;20697;-81
2023/07/20 08:56:42;;;;;;;4.13;2.20;;;24.80;14.10;;;;;;5071384;28;20595;-79
2023/07/20 08:59:11;;;;;;;4.63;2.50;;;24.80;14.10;;;;;;5072008;28;20197;-82
2023/07/20 09:01:41;;;;;;;4.55;2.90;;;25.20;14.20;;;;;;5070982;28;20201;-82
2023/07/20 09:04:07;;;;;;;4.20;2.20;;;25.30;14.30;;;;;;5068485;28;20192;-81
2023/07/20 09:06:36;;;;;;;5.70;2.60;;;25.50;14.50;;;;;;5067802;28;21512;-83
2023/07/20 09:09:03;;;;;;;3.20;2.38;;;25.70;13.80;;;;;;5072660;28;20664;-82
2023/07/20 09:11:30;;;;;;;4.13;2.50;;;25.90;14.60;;;;;;5072767;28;20205;-82
2023/07/20 09:14:06;;;;;;;4.05;2.30;;;25.60;14.40;;;;;;5073726;28;20225;-82
2023/07/20 09:16:48;;;;;;;4.13;2.50;;;26.10;12.70;;;;;;5071541;28;20215;-80
2023/07/20 09:19:16;;;;;;;5.03;2.50;;;26.30;12.90;;;;;;5073221;28;20228;-82
2023/07/20 09:21:45;;;;;;;4.18;2.55;;;26.00;13.40;;;;;;5070938;28;20197;-82
2023/07/20 09:24:12;;;;;;;3.95;2.40;;;26.30;12.90;;;;;;5070202;28;20196;-81
2023/07/20 09:26:42;;;;;;;5.03;2.83;;;26.60;13.60;;;;;;5080219;28;20211;-83
2023/07/20 09:29:10;;;;;;;6.35;2.80;;;27.10;11.10;;;;;;5069988;28;20224;-81
2023/07/20 09:31:38;;;;;;;5.18;2.85;;;27.60;10.60;;;;;;5074175;28;20196;-82
2023/07/20 09:34:05;;;;;;;5.43;2.92;;;27.50;10.30;;;;;;5072808;28;20687;-83
2023/07/20 09:36:34;;;;;;;5.30;2.72;;;27.50;10.80;;;;;;5076045;28;20192;-82
2023/07/20 09:39:02;;;;;;;3.15;2.72;;;28.90;8.90;;;;;;5079064;28;20935;-82
2023/07/20 09:41:28;;;;;;;4.78;2.50;;;28.90;7.50;;;;;;5070523;28;20293;-81
2023/07/20 09:43:55;;;;;;;5.03;2.80;;;27.80;8.20;;;;;;5070927;28;20201;-82
2023/07/20 09:46:22;;;;;;;4.68;2.85;;;26.90;10.10;;;;;;5071136;28;20205;-83
2023/07/20 09:49:09;;;;;;;3.05;2.40;;;26.20;12.50;;;;;;5073234;28;20207;-80
2023/07/20 09:51:36;;;;;;;5.45;2.53;;;26.90;11.00;;;;;;5070236;28;20565;-81
2023/07/20 09:54:04;;;;;;;4.50;2.55;;;27.80;9.60;;;;;;5059738;28;20216;-81
2023/07/20 09:56:31;;;;;;;4.38;2.90;;;28.30;7.30;;;;;;5068067;28;20189;-83
2023/07/20 09:58:59;;;;;;;6.22;2.80;;;27.80;8.50;;;;;;5071930;28;20197;-82
2023/07/20 10:01:28;;;;;;;3.95;2.60;;;27.40;8.30;;;;;;5070980;28;20226;-83
2023/07/20 10:03:55;;;;;;;4.35;2.50;;;27.00;12.00;;;;;;5073598;28;20201;-82
2023/07/20 10:06:25;;;;;;;4.25;3.00;;;27.60;8.80;;;;;;5061725;28;20194;-81
2023/07/20 10:08:56;;;;;;;3.53;2.83;;;28.00;8.30;;;;;;5069181;28;20544;-81
2023/07/20 10:11:27;;;;;;;4.10;3.10;;;28.10;8.30;;;;;;5070825;28;20673;-82
2023/07/20 10:13:57;;;;;;;3.10;2.50;;;27.10;10.30;;;;;;5073761;28;20705;-82
2023/07/20 10:16:36;;;;;;;5.28;2.20;;;26.50;9.60;;;;;;5080936;28;20211;-81
2023/07/20 10:19:08;;;;;;;5.57;2.40;;;26.40;9.80;;;;;;5076324;28;20213;-79
2023/07/20 10:21:42;;;;;;;3.70;2.55;;;26.10;10.90;;;;;;5081637;28;20213;-82
2023/07/20 10:24:11;;;;;;;3.63;2.28;;;26.00;10.90;;;;;;5065598;28;20641;-80
2023/07/20 10:26:38;;;;;;;4.82;2.30;;;25.90;11.20;;;;;;5064617;28;20675;-79
2023/07/20 10:29:06;;;;;;;4.28;2.40;;;25.70;13.10;;;;;;5076345;28;20343;-80
2023/07/20 10:31:34;;;;;;;6.22;2.40;;;25.60;11.70;;;;;;5068413;28;20210;-82
2023/07/20 10:34:02;;;;;;;3.03;2.50;;;25.20;14.40;;;;;;5050338;28;20221;-82
2023/07/20 10:36:29;;;;;;;5.80;2.53;;;24.70;14.00;;;;;;5072944;28;20752;-82
2023/07/20 10:38:58;;;;;;;4.55;2.67;;;24.30;13.70;;;;;;5069273;28;20190;-84
2023/07/20 10:41:29;;;;;;;3.92;2.40;;;24.40;13.80;;;;;;5070899;28;20202;-81
2023/07/20 10:44:01;;;;;;;5.78;2.72;;;24.50;13.90;;;;;;5069978;28;20318;-82
2023/07/20 10:46:36;;;;;;;3.58;2.45;;;25.20;14.30;;;;;;5076002;28;20197;-79
2023/07/20 10:49:04;;;;;;;2.60;2.40;;;25.90;13.20;;;;;;5073390;28;20200;-79
2023/07/20 10:51:39;;;;;;;2.50;2.30;;;26.50;12.70;;;;;;5069750;28;20201;-82
2023/07/20 10:54:09;;;;;;;5.47;2.70;;;26.50;11.60;;;;;;5073121;28;20208;-82
2023/07/20 10:56:36;;;;;;;5.07;2.38;;;26.80;11.40;;;;;;5072700;28;20197;-83
2023/07/20 10:59:19;;;;;;;3.53;2.80;;;27.20;10.70;;;;;;5071859;28;20193;-80
2023/07/20 11:01:49;;;;;;;4.25;2.60;;;28.00;8.10;;;;;;5071735;28;20545;-81
2023/07/20 11:04:18;;;;;;;5.20;2.67;;;27.70;9.60;;;;;;5069124;28;20200;-83
2023/07/20 11:06:46;;;;;;;2.83;2.47;;;27.00;10.40;;;;;;5070364;28;20708;-84
2023/07/20 11:09:15;;;;;;;5.53;2.65;;;26.50;14.90;;;;;;5071807;28;20201;-82
2023/07/20 11:11:44;;;;;;;7.57;2.70;;;26.40;10.60;;;;;;5068888;28;20282;-81
2023/07/20 11:14:11;;;;;;;4.07;2.30;;;26.50;11.10;;;;;;5070359;28;20228;-81
2023/07/20 11:16:41;;;;;;;3.13;2.40;;;26.60;13.70;;;;;;5061314;28;20193;-82
2023/07/20 11:19:16;;;;;;;3.28;2.25;;;27.20;9.40;;;;;;5074537;28;20227;-82
2023/07/20 11:21:45;;;;;;;4.63;2.60;;;27.20;9.30;;;;;;5056281;28;20200;-79
2023/07/20 11:24:13;;;;;;;3.70;2.55;;;26.40;12.50;;;;;;5076518;28;20752;-81
2023/07/20 11:26:46;;;;;;;4.15;2.45;;;25.90;12.80;;;;;;5079166;28;20639;-78
2023/07/20 11:29:13;;;;;;;2.83;2.38;;;25.60;12.00;;;;;;5070751;28;20653;-77
2023/07/20 11:31:41;;;;;;;2.90;2.35;;;25.60;12.70;;;;;;5068329;28;20200;-82
2023/07/20 11:34:11;;;;;;;4.38;2.67;;;25.30;13.60;;;;;;5045330;28;20747;-82
2023/07/20 11:36:38;;;;;;;3.25;2.35;;;25.10;14.20;;;;;;5078948;28;20448;-81
2023/07/20 11:39:07;;;;;;;4.63;2.65;;;25.30;12.10;;;;;;5069468;28;20200;-80
2023/07/20 11:41:34;;;;;;;2.63;2.33;;;25.40;11.30;;;;;;5071128;28;20229;-81
2023/07/20 11:44:03;;;;;;;4.05;2.78;;;25.40;12.00;;;;;;5069724;28;20197;-81
2023/07/20 11:46:30;;;;;;;3.75;2.40;;;25.50;11.70;;;;;;5064993;28;20566;-82
2023/07/20 11:48:59;;;;;;;5.07;2.30;;;25.50;13.00;;;;;;5071590;28;20660;-79
2023/07/20 11:51:27;;;;;;;4.78;2.42;;;25.50;12.40;;;;;;5074592;28;20562;-82
2023/07/20 11:53:54;;;;;;;6.00;2.10;;;25.60;12.60;;;;;;5070948;28;20217;-82
2023/07/20 11:56:22;;;;;;;7.05;2.42;;;25.90;13.00;;;;;;5069519;28;20200;-81
2023/07/20 11:58:49;;;;;;;7.18;2.10;;;26.30;11.00;;;;;;5063818;28;20209;-78
2023/07/20 12:01:20;;;;;;;3.40;2.55;;;26.70;11.00;;;;;;5070665;28;20201;-81
2023/07/20 12:03:48;;;;;;;3.92;2.17;;;26.60;9.40;;;;;;5075499;28;20201;-80
2023/07/20 12:06:15;;;;;;;2.53;2.10;;;26.50;11.80;;;;;;5075806;28;20205;-81
2023/07/20 12:08:44;;;;;;;2.47;2.28;;;26.50;10.40;;;;;;5072351;28;20197;-81
2023/07/20 12:11:11;;;;;;;3.92;2.10;;;26.70;11.20;;;;;;5073532;28;20189;-83
2023/07/20 12:13:40;;;;;;;4.03;2.30;;;26.40;10.70;;;;;;5074210;28;20220;-84
2023/07/20 12:16:14;;;;;;;5.13;2.40;;;26.30;12.00;;;;;;5074901;28;20189;-85
2023/07/20 12:18:43;;;;;;;5.75;2.00;;;26.30;13.50;;;;;;5075000;28;20212;-84
2023/07/20 12:21:10;;;;;;;4.10;2.13;;;26.40;10.80;;;;;;5083063;28;20291;-82
2023/07/20 12:23:39;;;;;;;3.05;2.15;;;26.50;11.00;;;;;;5082063;28;20208;-83
2023/07/20 12:26:08;;;;;;;3.97;2.17;;;26.40;11.70;;;;;;5074049;28;20196;-83
2023/07/20 12:28:40;;;;;;;3.42;2.15;;;26.70;11.50;;;;;;5074021;28;20238;-82
2023/07/20 12:31:06;;;;;;;3.30;2.00;;;26.70;10.20;;;;;;5080013;28;20216;-84
2023/07/20 12:33:33;;;;;;;3.67;2.10;;;26.80;12.80;;;;;;5077110;28;20657;-81
2023/07/20 12:36:02;;;;;;;3.10;2.22;;;26.80;11.20;;;;;;5056489;28;20270;-83
2023/07/20 12:38:30;;;;;;;2.72;2.05;;;26.70;10.20;;;;;;5074572;28;20215;-85
2023/07/20 12:40:58;;;;;;;6.05;2.38;;;26.60;11.10;;;;;;5074677;28;20197;-83
2023/07/20 12:43:25;;;;;;;6.40;2.55;;;26.70;10.90;;;;;;5065784;28;20255;-83
2023/07/20 12:45:52;;;;;;;3.00;1.98;;;26.20;9.90;;;;;;5070445;28;20657;-82
2023/07/20 12:48:19;;;;;;;4.82;2.25;;;26.10;11.00;;;;;;5072169;28;20695;-84
2023/07/20 12:50:46;;;;;;;2.83;1.95;;;26.00;10.30;;;;;;5074431;28;20193;-84
2023/07/20 12:53:14;;;;;;;3.22;2.03;;;26.00;10.90;;;;;;5051881;28;20197;-84